Airfield :
LOGIN :

Register | Disclaimer

   EN    FR    IT 

 










Legend :    VFR   Marginal VFR   IFR   Intensive IFR   Very Intensive IFR
Visi :
Ceiling :
>= 8 km
>= 3000ft
5 to 8 km
1000 to 3000 ft
1500m to 5 km
500 to 1000 ft
800 to 1500m
200 to 500 ft
< 800m
< 200 ft
Symbols :   Thunderstorms  Fog  Heavy snow  Heavy precipitations  Wind > 20 kt
SIGMETs :     Misc.  Thunderstorms  Icing  Turbulence  Mountain Waves  Volcanic Ashes






- Airport Elevation : 1197 ft
- IATA code : SPM


ETAD - Spangdahlem Ab

CURRENT METAR :
  • 151817Z AUTO 22005KT 9999 -RA SCT014 SCT020 BKN027 12/11 A2979 RMK AO2 CIG 026 RWY05 SLP078 $

EXPIRED METARs :
  • 151756Z 22008KT 9999 -RA BKN022 12/11 A2978 RMK AO2A CIG 019 RWY05 SLP075 P0002 60013 T01170114 10141 20117 53010 $
  • 151743Z 20007KT 9999 -RA FEW005 BKN019 BKN031 12/12 A2978 RMK AO2A CIG 019V031 CIG 018 RWY05 CIG 006 RWY24 SLP075 $
  • 151727Z 21006KT 9999 -RA FEW010 BKN025 12/12 A2978 RMK AO2A SLP075 $
  • 151656Z 23005KT 9999 -RA SCT004 BKN010 12/12 A2976 RMK AO2A RAE37DZB37E42RAB42E53DZB53E55RAB55 SLP068 P0003 T01220119 $
  • 151631Z 22007KT 9999 -RA SCT004 BKN006 OVC010 12/12 A2976 RMK AO2A SLP068 $
  • 151611Z 23005KT 9999 -RA BKN005 BKN007 13/12 A2975 RMK AO2A SLP063 $
  • 151556Z 22004KT 9999 -RA BKN007 OVC025 13/12 A2975 RMK AO2A CIG 005V025 BKN V FEW SLP063 P0006 T01260121 $
  • 151546Z 22004KT 9999 -RA FEW005 BKN009 OVC025 13/12 A2975 RMK AO2A CIG 006 RWY05 SLP063 $

TAF TAF ETAD
Valid from the 15 at 12:00 until the 16 at 18:00 UTC


151200Z 1512/1618 21009KT 9999 BKN010 OVC020 QNH2973INS
TEMPO 1512/1515 8000 -SHRA BKN008
BECMG 1515/1516 25010G15KT 8000 -SHRA BKN007 OVC015 QNH2973INS
BECMG 1520/1521 25008KT 9999 NSW BKN025 QNH2986INS
BECMG 1608/1609 22010G15KT 8000 -RA BKN010 OVC018 620806 QNH2987INS
BECMG 1615/1616 21012KT 9999 NSW SCT015 QNH2987INS TX16/1512Z TN08/1605Z



MET'MAP, your aeronautical weather chart ! - Copyright ORBIFLY December 2007 - Disclaimer

ORBIFLY MET'MAP TEAM :

Programming & Development : Alexandra Zaïnal
Concept & Development : Baudouin d'Aumeries
Co-Development & Prog : Marc-Olivier Méhu
Technical & hardware support : Manuel Goepfert

Contact : metmap@orbifly.com




SOURCES & CREDITS :

   NOAA